Poniatowski, Wisconsin
Current Conditions -  °F | °C
As of 3:45 PM on Thursday 18 Dec 2014 (Local Time) from KCWA Reporting Station
Overcast Overcast  
Wind Chill: 25°   Ceiling: 1900
Heat Index: 25°   Visibility: 10mi
Dew Point: 21°   Wind: 3mph
Humidity: 86%   Direction: 340°NNW
Pressure: 30.23"   Gusts: NA
Location:  44.8973°N, 90.0113°W
Report Text: KCWA 182145Z 34003KT 10SM OVC019 M04/M06 A3023
Loading
Personal Weather Stations






























Interactive Weather Map New forecast layout! Learn more

10-Day Weather Forecast

Advertisements
Track Severe Weather on mobile